Terminal Aerodrome Forecast
Issued by NWS

Home | Current Version | Previous Version | Text Only | Print | Product List | Glossary On
Versions: 1 2 3 4 5 6 7 8 9 10 11 12 13 14 15
000
FTUS43 KMPX 222300
TAFRWF
TAF
KRWF 222336Z 2300/2324 16013KT P6SM SCT020 BKN060
     FM230100 17010KT 6SM -SHRA BR SCT015 OVC035
      TEMPO 2301/2304 4SM SHRA BR BKN015
     FM230400 19008KT 6SM BR SCT020 BKN040
     FM230900 24005KT 4SM BR FEW030
     FM231300 27009KT P6SM SKC=

USA.gov is the U.S. government's official web portal to all federal, state and local government web resources and services.